createdAt,value
2024-01-22T00:00:52.503Z,-8.40
2024-01-22T00:03:15.403Z,-8.50
2024-01-22T00:05:38.639Z,-8.60
2024-01-22T00:08:01.514Z,-8.70
2024-01-22T00:10:24.642Z,-8.80
2024-01-22T00:12:47.472Z,-8.90
2024-01-22T00:15:12.596Z,-8.90
2024-01-22T00:17:35.762Z,-8.90
2024-01-22T00:19:58.714Z,-8.90
2024-01-22T00:22:21.271Z,-9.00
2024-01-22T00:24:44.406Z,-9.00
2024-01-22T00:27:07.570Z,-9.10
2024-01-22T00:29:30.689Z,-9.20
2024-01-22T00:31:54.763Z,-9.20
2024-01-22T00:34:17.899Z,-9.30
2024-01-22T00:36:40.577Z,-9.30
2024-01-22T00:39:03.714Z,-9.40
2024-01-22T00:41:26.477Z,-9.40
2024-01-22T00:43:49.616Z,-9.40
2024-01-22T00:46:13.409Z,-9.40
2024-01-22T00:48:37.988Z,-9.40
2024-01-22T00:51:00.758Z,-9.40
2024-01-22T00:53:23.953Z,-9.40
2024-01-22T00:55:47.561Z,-9.40
2024-01-22T00:58:10.452Z,-9.50
2024-01-22T01:00:33.592Z,-9.50
2024-01-22T01:02:57.512Z,-9.50
2024-01-22T01:05:21.836Z,-9.40
2024-01-22T01:07:44.856Z,-9.30
2024-01-22T01:10:08.653Z,-9.30
2024-01-22T01:12:31.361Z,-9.20
2024-01-22T01:14:54.101Z,-9.20
2024-01-22T01:19:37.377Z,-9.20
2024-01-22T01:22:09.564Z,-9.20
2024-01-22T01:24:33.897Z,-9.20
2024-01-22T01:26:56.500Z,-9.10
2024-01-22T01:29:19.718Z,-9.10
2024-01-22T01:31:42.354Z,-9.10
2024-01-22T01:34:06.349Z,-9.20
2024-01-22T01:36:30.909Z,-9.20
2024-01-22T01:38:53.999Z,-9.20
2024-01-22T01:41:16.907Z,-9.20
2024-01-22T01:43:39.917Z,-9.20
2024-01-22T01:46:03.003Z,-9.20
2024-01-22T01:48:26.465Z,-9.20
2024-01-22T01:50:50.190Z,-9.20
2024-01-22T01:53:15.897Z,-9.20
2024-01-22T01:55:40.058Z,-9.20
2024-01-22T01:58:06.149Z,-9.30
2024-01-22T02:00:29.710Z,-9.30
2024-01-22T02:02:52.794Z,-9.30
2024-01-22T02:05:16.193Z,-9.40
2024-01-22T02:07:39.071Z,-9.40
2024-01-22T02:10:03.816Z,-9.40
2024-01-22T02:12:26.429Z,-9.50
2024-01-22T02:14:50.173Z,-9.50
2024-01-22T02:17:13.422Z,-9.50
2024-01-22T02:19:36.252Z,-9.50
2024-01-22T02:21:59.336Z,-9.50
2024-01-22T02:24:23.488Z,-9.60
2024-01-22T02:26:46.456Z,-9.60
2024-01-22T02:29:09.400Z,-9.70
2024-01-22T02:31:32.255Z,-9.70
2024-01-22T02:33:55.461Z,-9.70
2024-01-22T02:36:18.674Z,-9.70
2024-01-22T02:38:41.943Z,-9.70
2024-01-22T02:41:08.056Z,-9.70
2024-01-22T02:43:30.779Z,-9.80
2024-01-22T02:45:53.673Z,-9.70
2024-01-22T02:48:16.924Z,-9.70
2024-01-22T02:50:40.194Z,-9.70
2024-01-22T02:53:03.301Z,-9.70
2024-01-22T02:55:26.494Z,-9.70
2024-01-22T02:57:51.262Z,-9.70
2024-01-22T03:00:15.794Z,-9.70
2024-01-22T03:02:38.521Z,-9.70
2024-01-22T03:05:01.454Z,-9.70
2024-01-22T03:07:24.507Z,-9.70
2024-01-22T03:09:47.468Z,-9.70
2024-01-22T03:12:10.174Z,-9.70
2024-01-22T03:14:34.400Z,-9.70
2024-01-22T03:16:57.345Z,-9.80
2024-01-22T03:19:20.573Z,-9.80
2024-01-22T03:21:43.398Z,-9.80
2024-01-22T03:24:06.652Z,-9.90
2024-01-22T03:26:29.434Z,-9.90
2024-01-22T03:28:52.950Z,-9.90
2024-01-22T03:31:25.145Z,-9.90
2024-01-22T03:33:47.955Z,-10.00
2024-01-22T03:36:10.830Z,-10.00
2024-01-22T03:38:34.293Z,-10.00
2024-01-22T03:40:57.077Z,-10.00
2024-01-22T03:43:20.330Z,-10.10
2024-01-22T03:45:42.986Z,-10.00
2024-01-22T03:48:08.615Z,-10.10
2024-01-22T03:50:31.636Z,-10.10
2024-01-22T03:52:54.851Z,-10.10
2024-01-22T03:55:17.577Z,-10.10
2024-01-22T03:57:40.899Z,-10.20
2024-01-22T04:00:04.015Z,-10.20
2024-01-22T04:02:26.756Z,-10.20
2024-01-22T04:04:51.976Z,-10.20
2024-01-22T04:07:15.180Z,-10.30
2024-01-22T04:09:38.785Z,-10.30
2024-01-22T04:12:01.653Z,-10.30
2024-01-22T04:14:24.578Z,-10.30
2024-01-22T04:16:48.006Z,-10.30
2024-01-22T04:19:11.031Z,-10.30
2024-01-22T04:21:35.670Z,-10.30
2024-01-22T04:23:58.496Z,-10.40
2024-01-22T04:26:21.377Z,-10.40
2024-01-22T04:28:43.879Z,-10.40
2024-01-22T04:31:08.210Z,-10.40
2024-01-22T04:33:31.723Z,-10.40
2024-01-22T04:35:54.783Z,-10.40
2024-01-22T04:38:19.755Z,-10.40
2024-01-22T04:40:42.911Z,-10.50
2024-01-22T04:43:05.908Z,-10.40
2024-01-22T04:45:28.956Z,-10.40
2024-01-22T04:47:51.696Z,-10.40
2024-01-22T04:50:16.394Z,-10.40
2024-01-22T04:52:39.040Z,-10.40
2024-01-22T04:55:09.998Z,-10.40
2024-01-22T04:57:38.897Z,-10.40
2024-01-22T05:00:01.868Z,-10.30
2024-01-22T05:02:28.844Z,-10.30
2024-01-22T05:04:51.914Z,-10.30
2024-01-22T05:07:14.968Z,-10.20
2024-01-22T05:09:37.784Z,-10.30
2024-01-22T05:12:02.584Z,-10.30
2024-01-22T05:14:25.805Z,-10.30
2024-01-22T05:16:49.887Z,-10.30
2024-01-22T05:19:13.137Z,-10.30
2024-01-22T05:21:35.843Z,-10.30
2024-01-22T05:23:58.738Z,-10.30
2024-01-22T05:26:21.992Z,-10.30
2024-01-22T05:28:46.143Z,-10.20
2024-01-22T05:31:09.187Z,-10.30
2024-01-22T05:33:32.073Z,-10.30
2024-01-22T05:35:55.215Z,-10.30
2024-01-22T05:38:18.238Z,-10.30
2024-01-22T05:40:41.300Z,-10.30
2024-01-22T05:43:03.888Z,-10.30
2024-01-22T05:45:29.474Z,-10.30
2024-01-22T05:47:52.551Z,-10.30
2024-01-22T05:50:15.837Z,-10.20
2024-01-22T05:52:39.124Z,-10.20
2024-01-22T05:55:02.563Z,-10.10
2024-01-22T05:57:25.435Z,-10.10
2024-01-22T05:59:48.529Z,-10.10
2024-01-22T06:02:12.996Z,-10.20
2024-01-22T06:04:36.901Z,-10.20
2024-01-22T06:07:03.266Z,-10.20
2024-01-22T06:09:29.120Z,-10.10
2024-01-22T06:11:51.821Z,-10.10
2024-01-22T06:14:14.945Z,-10.10
2024-01-22T06:16:38.009Z,-10.10
2024-01-22T06:19:02.731Z,-10.20
2024-01-22T06:21:25.403Z,-10.20
2024-01-22T06:23:49.347Z,-10.30
2024-01-22T06:26:12.316Z,-10.40
2024-01-22T06:28:35.553Z,-10.40
2024-01-22T06:30:58.668Z,-10.50
2024-01-22T06:33:22.187Z,-10.50
2024-01-22T06:35:46.443Z,-10.50
2024-01-22T06:38:10.080Z,-10.60
2024-01-22T06:40:33.086Z,-10.50
2024-01-22T06:42:56.162Z,-10.50
2024-01-22T06:45:19.285Z,-10.40
2024-01-22T06:47:42.210Z,-10.40
2024-01-22T06:50:05.550Z,-10.40
2024-01-22T06:52:30.572Z,-10.40
2024-01-22T06:54:53.357Z,-10.30
2024-01-22T06:57:16.404Z,-10.30
2024-01-22T06:59:39.347Z,-10.20
2024-01-22T07:02:02.237Z,-10.20
2024-01-22T07:04:24.980Z,-10.20
2024-01-22T07:06:48.014Z,-10.20
2024-01-22T07:09:12.937Z,-10.10
2024-01-22T07:11:36.144Z,-10.00
2024-01-22T07:14:00.341Z,-9.90
2024-01-22T07:16:23.471Z,-9.80
2024-01-22T07:18:46.572Z,-9.80
2024-01-22T07:21:09.660Z,-9.80
2024-01-22T07:23:32.894Z,-9.80
2024-01-22T07:25:57.745Z,-9.90
2024-01-22T07:28:20.994Z,-9.80
2024-01-22T07:30:44.398Z,-9.80
2024-01-22T07:33:07.734Z,-9.90
2024-01-22T07:35:32.193Z,-9.90
2024-01-22T07:37:55.983Z,-9.90
2024-01-22T07:40:19.925Z,-9.80
2024-01-22T07:42:44.235Z,-9.80
2024-01-22T07:45:08.077Z,-9.60
2024-01-22T07:47:31.073Z,-9.60
2024-01-22T07:49:54.029Z,-9.50
2024-01-22T07:52:18.102Z,-9.40
2024-01-22T07:54:41.342Z,-9.40
2024-01-22T07:57:04.257Z,-9.30
2024-01-22T07:59:28.887Z,-9.30
2024-01-22T08:01:51.909Z,-9.30
2024-01-22T08:04:14.739Z,-9.20
2024-01-22T08:06:38.010Z,-9.10
2024-01-22T08:09:01.964Z,-9.00
2024-01-22T08:11:24.697Z,-8.90
2024-01-22T08:13:47.786Z,-8.90
2024-01-22T08:16:13.294Z,-8.70
2024-01-22T08:18:36.568Z,-8.60
2024-01-22T08:20:59.429Z,-8.60
2024-01-22T08:23:22.403Z,-8.50
2024-01-22T08:25:45.623Z,-8.40
2024-01-22T08:28:09.648Z,-8.30
2024-01-22T08:30:33.013Z,-8.30
2024-01-22T08:32:58.458Z,-8.20
2024-01-22T08:35:22.129Z,-8.10
2024-01-22T08:37:46.977Z,-8.00
2024-01-22T08:40:10.988Z,-7.90
2024-01-22T08:42:33.826Z,-7.70
2024-01-22T08:44:56.338Z,-7.60
2024-01-22T08:47:19.366Z,-7.50
2024-01-22T08:49:43.848Z,-7.30
2024-01-22T08:52:07.398Z,-7.10
2024-01-22T08:54:31.144Z,-7.00
2024-01-22T08:56:53.904Z,-6.80
2024-01-22T08:59:17.976Z,-6.70
2024-01-22T09:01:40.823Z,-6.30
2024-01-22T09:04:03.770Z,-5.40
2024-01-22T09:06:28.134Z,-5.30
2024-01-22T09:08:51.171Z,-5.00
2024-01-22T09:11:14.177Z,-4.90
2024-01-22T09:13:37.031Z,-4.90
2024-01-22T09:15:59.596Z,-5.00
2024-01-22T09:18:22.960Z,-4.10
2024-01-22T09:20:45.406Z,-2.20
2024-01-22T09:23:10.435Z,0.80
2024-01-22T09:25:32.935Z,2.70
2024-01-22T09:27:56.175Z,2.40
2024-01-22T09:30:20.037Z,2.40
2024-01-22T09:32:43.151Z,3.00
2024-01-22T09:35:06.395Z,2.20
2024-01-22T09:37:28.937Z,1.60
2024-01-22T09:39:52.990Z,1.80
2024-01-22T09:42:18.788Z,0.80
2024-01-22T09:44:42.996Z,-0.10
2024-01-22T09:47:06.610Z,-1.30
2024-01-22T09:49:29.807Z,-2.10
2024-01-22T09:51:53.323Z,-2.10
2024-01-22T09:54:22.222Z,-0.20
2024-01-22T09:56:54.611Z,2.40
2024-01-22T09:59:21.551Z,4.40
2024-01-22T10:01:45.950Z,4.70
2024-01-22T10:04:10.738Z,2.90
2024-01-22T10:06:35.232Z,1.60
2024-01-22T10:09:01.441Z,0.80
2024-01-22T10:11:24.430Z,-0.20
2024-01-22T10:13:56.319Z,-1.00
2024-01-22T10:16:20.823Z,-1.70
2024-01-22T10:18:58.119Z,-2.20
2024-01-22T10:21:22.345Z,-2.20
2024-01-22T10:23:57.271Z,-2.60
2024-01-22T10:26:24.653Z,-3.00
2024-01-22T10:28:47.323Z,-3.30
2024-01-22T10:31:13.308Z,-3.30
2024-01-22T10:33:36.178Z,-3.20
2024-01-22T10:36:15.076Z,-2.40
2024-01-22T10:38:37.826Z,-2.30
2024-01-22T10:41:00.346Z,-2.30
2024-01-22T10:43:28.587Z,-2.50
2024-01-22T10:45:53.280Z,-2.50
2024-01-22T10:48:27.728Z,-2.50
2024-01-22T10:51:03.906Z,-2.50
2024-01-22T10:53:27.512Z,-2.60
2024-01-22T10:56:01.224Z,-2.50
2024-01-22T10:58:28.122Z,-2.30
2024-01-22T11:00:55.243Z,-1.90
2024-01-22T11:03:21.629Z,-1.90
2024-01-22T11:05:47.573Z,-1.80
2024-01-22T11:08:14.179Z,-1.30
2024-01-22T11:10:37.711Z,0.30
2024-01-22T11:13:01.470Z,1.30
2024-01-22T11:15:25.518Z,2.20
2024-01-22T11:17:48.941Z,1.70
2024-01-22T11:20:19.658Z,1.20
2024-01-22T11:22:42.625Z,0.50
2024-01-22T11:25:10.970Z,-0.30
2024-01-22T11:27:44.208Z,-0.80
2024-01-22T11:30:39.747Z,-1.50
2024-01-22T11:33:01.948Z,-1.70
2024-01-22T11:35:39.819Z,-1.70
2024-01-22T11:38:05.102Z,-1.80
2024-01-22T11:40:49.417Z,-1.70
2024-01-22T11:43:13.497Z,-1.50
2024-01-22T11:45:41.981Z,-1.30
2024-01-22T11:48:16.594Z,-1.00
2024-01-22T11:50:41.719Z,-0.60
2024-01-22T11:53:04.957Z,-0.70
2024-01-22T11:55:27.951Z,-0.80
2024-01-22T11:57:52.058Z,-0.70
2024-01-22T12:00:23.369Z,-1.00
2024-01-22T12:02:50.012Z,-0.70
2024-01-22T12:05:14.806Z,-0.40
2024-01-22T12:07:41.029Z,-0.40
2024-01-22T12:10:04.042Z,-0.50
2024-01-22T12:12:27.156Z,-0.90
2024-01-22T12:14:57.454Z,-1.20
2024-01-22T12:17:20.570Z,-1.30
2024-01-22T12:19:44.523Z,-1.60
2024-01-22T12:22:09.021Z,-1.80
2024-01-22T12:24:34.168Z,-1.80
2024-01-22T12:26:56.984Z,-1.90
2024-01-22T12:29:25.297Z,-1.80
2024-01-22T12:31:48.903Z,-1.70
2024-01-22T12:34:13.257Z,-1.50
2024-01-22T12:36:37.650Z,-1.50
2024-01-22T12:39:04.887Z,-1.70
2024-01-22T12:41:29.205Z,-1.70
2024-01-22T12:43:52.094Z,-1.90
2024-01-22T12:46:16.279Z,-2.00
2024-01-22T12:48:40.546Z,-2.10
2024-01-22T12:51:04.894Z,-2.30
2024-01-22T12:53:29.357Z,-2.50
2024-01-22T12:55:55.616Z,-2.60
2024-01-22T12:58:19.843Z,-2.70
2024-01-22T13:00:43.884Z,-2.60
2024-01-22T13:03:07.616Z,-2.50
2024-01-22T13:05:35.773Z,-2.50
2024-01-22T13:08:00.101Z,-2.50
2024-01-22T13:10:23.083Z,-2.60
2024-01-22T13:12:45.532Z,-2.70
2024-01-22T13:15:14.625Z,-2.80
2024-01-22T13:17:37.586Z,-2.80
2024-01-22T13:20:00.644Z,-2.80
2024-01-22T13:22:24.235Z,-2.90
2024-01-22T13:24:47.216Z,-3.00
2024-01-22T13:27:11.162Z,-3.10
2024-01-22T13:29:35.154Z,-3.20
2024-01-22T13:32:00.655Z,-3.20
2024-01-22T13:34:25.545Z,-3.20
2024-01-22T13:36:48.565Z,-3.30
2024-01-22T13:39:10.871Z,-3.30
2024-01-22T13:41:33.931Z,-3.40
2024-01-22T13:43:56.851Z,-3.30
2024-01-22T13:46:19.835Z,-3.40
2024-01-22T13:48:50.459Z,-3.30
2024-01-22T13:51:14.328Z,-3.40
2024-01-22T13:53:36.983Z,-3.50
2024-01-22T13:55:59.517Z,-3.50
2024-01-22T13:58:22.117Z,-3.50
2024-01-22T14:00:45.109Z,-3.60
2024-01-22T14:03:08.067Z,-3.60
2024-01-22T14:05:32.622Z,-3.70
2024-01-22T14:07:55.850Z,-3.70
2024-01-22T14:10:18.731Z,-3.80
2024-01-22T14:12:41.608Z,-3.80
2024-01-22T14:15:04.466Z,-3.90
2024-01-22T14:17:27.401Z,-4.00
2024-01-22T14:19:50.202Z,-4.10
2024-01-22T14:22:15.597Z,-4.20
2024-01-22T14:24:38.866Z,-4.30
2024-01-22T14:27:03.228Z,-4.40
2024-01-22T14:29:27.400Z,-4.60
2024-01-22T14:31:50.553Z,-4.60
2024-01-22T14:34:13.153Z,-4.70
2024-01-22T14:36:36.135Z,-4.80
2024-01-22T14:39:00.837Z,-4.80
2024-01-22T14:41:23.921Z,-5.00
2024-01-22T14:43:49.401Z,-5.00
2024-01-22T14:46:12.022Z,-5.10
2024-01-22T14:48:36.462Z,-5.20
2024-01-22T14:50:59.360Z,-5.30
2024-01-22T14:53:22.614Z,-5.40
2024-01-22T14:55:46.759Z,-5.50
2024-01-22T14:58:09.778Z,-5.60
2024-01-22T15:00:34.894Z,-5.60
2024-01-22T15:02:58.450Z,-5.70
2024-01-22T15:05:20.969Z,-5.70
2024-01-22T15:07:43.894Z,-5.80
2024-01-22T15:10:08.482Z,-5.90
2024-01-22T15:12:33.043Z,-5.90
2024-01-22T15:14:58.223Z,-5.90
2024-01-22T15:17:21.323Z,-6.00
2024-01-22T15:19:44.174Z,-6.00
2024-01-22T15:22:08.518Z,-6.00
2024-01-22T15:24:30.083Z,-6.00
2024-01-22T15:26:53.172Z,-6.00
2024-01-22T15:29:17.978Z,-6.00
2024-01-22T15:31:42.446Z,-6.00
2024-01-22T15:34:06.635Z,-5.90
2024-01-22T15:36:30.123Z,-5.90
2024-01-22T15:38:52.964Z,-5.90
2024-01-22T15:41:16.123Z,-5.90
2024-01-22T15:43:40.526Z,-5.80
2024-01-22T15:46:05.583Z,-5.80
2024-01-22T15:48:29.555Z,-5.70
2024-01-22T15:50:53.420Z,-5.70
2024-01-22T15:53:17.481Z,-5.70
2024-01-22T15:55:40.733Z,-5.70
2024-01-22T15:58:04.012Z,-5.80
2024-01-22T16:00:27.222Z,-5.80
2024-01-22T16:02:51.715Z,-5.80
2024-01-22T16:05:15.601Z,-5.80
2024-01-22T16:07:38.650Z,-5.90
2024-01-22T16:10:02.566Z,-5.90
2024-01-22T16:12:25.690Z,-5.80
2024-01-22T16:14:48.603Z,-5.80
2024-01-22T16:17:11.748Z,-5.80
2024-01-22T16:19:37.421Z,-5.80
2024-01-22T16:22:00.295Z,-5.80
2024-01-22T16:24:23.502Z,-5.80
2024-01-22T16:26:50.022Z,-5.90
2024-01-22T16:29:15.317Z,-5.90
2024-01-22T16:31:38.163Z,-5.80
2024-01-22T16:34:01.218Z,-5.80
2024-01-22T16:36:26.808Z,-5.90
2024-01-22T16:38:50.637Z,-5.90
2024-01-22T16:41:13.858Z,-6.00
2024-01-22T16:43:36.821Z,-6.00
2024-01-22T16:45:59.442Z,-6.10
2024-01-22T16:48:22.683Z,-6.10
2024-01-22T16:50:45.725Z,-6.10
2024-01-22T16:53:12.539Z,-6.10
2024-01-22T16:55:35.168Z,-6.10
2024-01-22T16:57:58.241Z,-6.10
2024-01-22T17:00:23.807Z,-6.10
2024-01-22T17:02:46.866Z,-6.10
2024-01-22T17:05:11.365Z,-6.10
2024-01-22T17:07:34.826Z,-6.20
2024-01-22T17:09:59.307Z,-6.20
2024-01-22T17:12:22.519Z,-6.20
2024-01-22T17:14:45.427Z,-6.30
2024-01-22T17:17:08.435Z,-6.30
2024-01-22T17:19:31.429Z,-6.30
2024-01-22T17:21:54.442Z,-6.30
2024-01-22T17:24:18.046Z,-6.30
2024-01-22T17:26:42.793Z,-6.30
2024-01-22T17:29:05.603Z,-6.30
2024-01-22T17:31:28.543Z,-6.30
2024-01-22T17:33:51.598Z,-6.40
2024-01-22T17:36:15.031Z,-6.40
2024-01-22T17:38:39.862Z,-6.40
2024-01-22T17:41:03.294Z,-6.30
2024-01-22T17:43:27.872Z,-6.40
2024-01-22T17:45:50.650Z,-6.40
2024-01-22T17:48:14.089Z,-6.40
2024-01-22T17:50:37.183Z,-6.40
2024-01-22T17:53:02.199Z,-6.40
2024-01-22T17:55:29.058Z,-6.50
2024-01-22T17:57:52.001Z,-6.50
2024-01-22T18:00:18.096Z,-6.50
2024-01-22T18:02:41.214Z,-6.60
2024-01-22T18:05:04.712Z,-6.60
2024-01-22T18:07:27.770Z,-6.60
2024-01-22T18:09:50.824Z,-6.60
2024-01-22T18:12:13.323Z,-6.60
2024-01-22T18:14:39.036Z,-6.70
2024-01-22T18:17:03.329Z,-6.70
2024-01-22T18:19:28.088Z,-6.70
2024-01-22T18:21:51.076Z,-6.70
2024-01-22T18:24:14.233Z,-6.70
2024-01-22T18:26:37.345Z,-6.70
2024-01-22T18:29:01.647Z,-6.70
2024-01-22T18:31:24.161Z,-6.80
2024-01-22T18:33:48.834Z,-6.80
2024-01-22T18:36:12.176Z,-6.80
2024-01-22T18:38:35.219Z,-6.80
2024-01-22T18:40:57.564Z,-6.80
2024-01-22T18:43:22.177Z,-6.80
2024-01-22T18:45:45.042Z,-6.90
2024-01-22T18:48:09.741Z,-6.90
2024-01-22T18:50:37.035Z,-6.90
2024-01-22T18:52:59.616Z,-6.90
2024-01-22T18:55:23.601Z,-6.90
2024-01-22T18:57:46.720Z,-6.90
2024-01-22T19:00:11.350Z,-7.00
2024-01-22T19:02:34.395Z,-7.00
2024-01-22T19:04:58.254Z,-6.90
2024-01-22T19:07:22.351Z,-7.00
2024-01-22T19:09:48.449Z,-7.00
2024-01-22T19:12:11.723Z,-7.00
2024-01-22T19:14:35.345Z,-7.00
2024-01-22T19:16:58.978Z,-7.00
2024-01-22T19:19:22.263Z,-7.00
2024-01-22T19:21:45.327Z,-7.10
2024-01-22T19:24:09.819Z,-7.10
2024-01-22T19:26:32.549Z,-7.10
2024-01-22T19:28:55.037Z,-7.10
2024-01-22T19:31:18.020Z,-7.00
2024-01-22T19:33:40.958Z,-7.00
2024-01-22T19:36:04.293Z,-6.90
2024-01-22T19:38:27.239Z,-6.90
2024-01-22T19:40:52.556Z,-6.90
2024-01-22T19:43:15.778Z,-7.00
2024-01-22T19:45:38.506Z,-6.90
2024-01-22T19:48:01.696Z,-6.90
2024-01-22T19:50:24.739Z,-6.80
2024-01-22T19:52:50.034Z,-6.80
2024-01-22T19:55:12.914Z,-6.90
2024-01-22T19:57:38.482Z,-6.80
2024-01-22T20:00:01.388Z,-6.90
2024-01-22T20:02:24.777Z,-6.90
2024-01-22T20:04:47.477Z,-6.90
2024-01-22T20:07:10.644Z,-6.90
2024-01-22T20:09:33.288Z,-6.90
2024-01-22T20:11:56.132Z,-6.90
2024-01-22T20:14:22.001Z,-6.90
2024-01-22T20:16:44.619Z,-6.90
2024-01-22T20:19:07.575Z,-7.00
2024-01-22T20:21:31.438Z,-7.00
2024-01-22T20:24:04.013Z,-7.00
2024-01-22T20:26:30.698Z,-7.00
2024-01-22T20:28:53.662Z,-7.00
2024-01-22T20:31:17.853Z,-7.00
2024-01-22T20:33:40.722Z,-7.10
2024-01-22T20:36:03.575Z,-7.10
2024-01-22T20:38:26.572Z,-7.10
2024-01-22T20:40:49.645Z,-7.10
2024-01-22T20:43:13.388Z,-7.10
2024-01-22T20:45:36.622Z,-7.10
2024-01-22T20:48:01.263Z,-7.20
2024-01-22T20:50:24.066Z,-7.20
2024-01-22T20:52:46.589Z,-7.20
2024-01-22T20:55:10.811Z,-7.30
2024-01-22T20:57:33.798Z,-7.30
2024-01-22T20:59:57.102Z,-7.30
2024-01-22T21:02:20.120Z,-7.30
2024-01-22T21:04:44.616Z,-7.30
2024-01-22T21:07:08.069Z,-7.30
2024-01-22T21:09:31.877Z,-7.30
2024-01-22T21:11:54.730Z,-7.30
2024-01-22T21:14:17.704Z,-7.30
2024-01-22T21:16:41.584Z,-7.30
2024-01-22T21:19:04.703Z,-7.30
2024-01-22T21:21:28.876Z,-7.20
2024-01-22T21:23:54.618Z,-7.30
2024-01-22T21:26:20.982Z,-7.20
2024-01-22T21:28:44.197Z,-7.30
2024-01-22T21:31:06.887Z,-7.30
2024-01-22T21:33:29.937Z,-7.30
2024-01-22T21:35:53.113Z,-7.30
2024-01-22T21:38:17.381Z,-7.30
2024-01-22T21:40:40.403Z,-7.30
2024-01-22T21:43:03.476Z,-7.30
2024-01-22T21:45:26.708Z,-7.30
2024-01-22T21:47:49.937Z,-7.30
2024-01-22T21:50:13.063Z,-7.30
2024-01-22T21:52:34.769Z,-7.30
2024-01-22T21:54:59.099Z,-7.40
2024-01-22T21:57:22.346Z,-7.40
2024-01-22T21:59:48.975Z,-7.40
2024-01-22T22:02:12.031Z,-7.40
2024-01-22T22:04:35.312Z,-7.40
2024-01-22T22:06:58.693Z,-7.50
2024-01-22T22:09:21.466Z,-7.50
2024-01-22T22:11:46.330Z,-7.50
2024-01-22T22:14:10.333Z,-7.50
2024-01-22T22:16:33.438Z,-7.50
2024-01-22T22:18:56.554Z,-7.50
2024-01-22T22:21:19.920Z,-7.60
2024-01-22T22:23:42.855Z,-7.60
2024-01-22T22:26:06.328Z,-7.70
2024-01-22T22:28:30.514Z,-7.70
2024-01-22T22:30:54.063Z,-7.70
2024-01-22T22:33:17.330Z,-7.70
2024-01-22T22:35:40.692Z,-7.90
2024-01-22T22:38:04.568Z,-7.90
2024-01-22T22:40:27.415Z,-7.90
2024-01-22T22:42:50.500Z,-7.90
2024-01-22T22:45:15.024Z,-8.00
2024-01-22T22:47:38.556Z,-7.90
2024-01-22T22:50:01.893Z,-7.90
2024-01-22T22:52:25.066Z,-8.00
2024-01-22T22:54:47.875Z,-8.00
2024-01-22T22:57:10.816Z,-8.00
2024-01-22T22:59:34.554Z,-8.00
2024-01-22T23:01:58.792Z,-8.00
2024-01-22T23:04:23.378Z,-8.00
2024-01-22T23:06:46.175Z,-8.00
2024-01-22T23:09:09.744Z,-8.00
2024-01-22T23:11:32.361Z,-8.00
2024-01-22T23:13:55.258Z,-8.00
2024-01-22T23:16:17.726Z,-8.00
2024-01-22T23:18:42.236Z,-7.90
2024-01-22T23:21:05.740Z,-7.90
2024-01-22T23:23:30.954Z,-7.90
2024-01-22T23:25:53.785Z,-7.90
2024-01-22T23:28:16.849Z,-7.90
2024-01-22T23:30:39.311Z,-7.90
2024-01-22T23:33:02.857Z,-7.90
2024-01-22T23:35:27.338Z,-7.80
2024-01-22T23:37:53.099Z,-7.80
2024-01-22T23:40:15.898Z,-7.80
2024-01-22T23:42:41.491Z,-7.80
2024-01-22T23:45:06.945Z,-7.80
2024-01-22T23:47:29.797Z,-7.80
2024-01-22T23:49:52.886Z,-7.70
2024-01-22T23:52:17.335Z,-7.70
2024-01-22T23:54:40.340Z,-7.80
2024-01-22T23:57:03.604Z,-7.80
2024-01-22T23:59:26.443Z,-7.80
